Terminal Aerodrome Forecast
Issued by NWS

Home | Current Version | Previous Version | Text Only | Print | Product List | Glossary On
Versions: 1 2 3 4 5 6 7 8 9 10 11 12
460
FTUS42 KTAE 081720
TAFDHN
TAF
KDHN 081720Z 0818/0918 27015G30KT P6SM SCT040
     FM090000 29010G16KT P6SM BKN040
     FM090300 29010KT P6SM FEW040
     FM091500 29015G25KT P6SM SCT100=

USA.gov is the U.S. government's official web portal to all federal, state and local government web resources and services.